Lovilia, IA (50150)

6:30 PM CDT on September 30, 2014 (GMT -0500)
Knoxville Municipal | Change Station
CLOSE
Current Station
Airport
Location: Knoxville,
Elevation: 928 ft
Nearby Weather Stations

Elev 928 ft 41.30 °N, 93.11 °W | Updated 15 minutes ago

Clear
Clear
68 °F
Feels Like 68 °F
N
8
Wind Variable Wind from ESE

Today
High -- | Low -- °F
--% Chance of Precip.
Yesterday
High -- | Low -- °F
Precip. -- in
7:07 AM 6:55 PM
Waxing Crescent, 41% visible
Pressure 29.84 in
Visibility 10.0 miles
Clouds Clear
Dew Point 59 °F
Humidity 73%
Rainfall 0.00 in
Snow Depth Not available.
UV 0 out of 12
Pollen 4.90 out of 12
Air Quality Not available.
Flu Activity Not available.
METAR KOXV 302315Z AUTO 11007KT 080V140 10SM CLR 20/15 A2984 RMK AO2

More Conditions Fewer Conditions

Pressure 29.84 in
Visibility 10.0 miles
Clouds Clear
Dew Point 59 °F
Humidity 73%
Rainfall 0.00 in
Snow Depth Not available.
UV 0 out of 12
Pollen 4.90 out of 12
Air Quality Not available.
Flu Activity Not available.
METAR KOXV 302315Z AUTO 11007KT 080V140 10SM CLR 20/15 A2984 RMK AO2

More Conditions Fewer Conditions

10-Day Weather Forecast

Almanac

Astronomy

Sep. 30, 2014 Rise Set
Actual Time 7:07 AM CDT 6:55 PM CDT
Civil Twilight 6:39 AM CDT 7:22 PM CDT
Nautical Twilight 6:07 AM CDT 7:54 PM CDT
Astronomical Twilight 5:35 AM CDT 8:26 PM CDT
Moon 1:18 PM CDT 11:23 PM CDT
Length of Visible Light 12h 42m
Length of Day
11h 47m
Tomorrow will be 2m 43s shorter.
Waxing Crescent, 41% of the Moon is Illuminated
Today
Waxing Crescent
Oct 1
First Quarter
Oct 8
Full
Oct 15
Last Quarter
Oct 23
New

Today's Extremes

State Highs State Lows

Community

WunderPhotos

Upload Photos

1,757,768 photos uploaded!

Nearby

Snow Depth

Station Depth Elevation
No new snow has been reported.

Earthquake Activity

City Distance Mag. Time & Date
No recent earthquake activity has been reported nearby.
Minimum magnitude displayed is 2.5.

Coastal Water Temperatures

Place Temperature
No Stations Reporting

Nearby Weather Stations